Time;durP1;ratioP1;P1;durP2;ratioP2;P2;SDS_P1;SDS_P2;PMS_P1;PMS_P2;Temp;Humidity;BMP_temperature;BMP_pressure;BME280_temperature;BME280_humidity;BME280_pressure;Samples;Min_cycle;Max_cycle;Signal;HPM_P1;HPM_P2
2021/01/21 00:02:06;;;;;;;8.43;6.23;;;;;;;5.38;71.83;97266.78;4925028;28;103080;-86
2021/01/21 00:04:33;;;;;;;6.97;6.27;;;;;;;5.42;72.20;97269.03;4910945;28;103356;-85
2021/01/21 00:07:00;;;;;;;7.50;6.70;;;;;;;5.34;71.26;97260.09;4904687;28;103479;-84
2021/01/21 00:09:27;;;;;;;10.40;8.00;;;;;;;5.21;71.56;97265.41;4916368;28;103752;-86
2021/01/21 00:11:54;;;;;;;9.73;8.67;;;;;;;5.25;71.01;97280.75;4923659;28;103199;-85
2021/01/21 00:14:22;;;;;;;8.20;7.10;;;;;;;5.34;72.08;97283.66;4915000;28;102980;-86
2021/01/21 00:16:49;;;;;;;8.67;7.50;;;;;;;5.28;71.23;97298.03;4923730;28;103908;-86
2021/01/21 00:19:16;;;;;;;7.97;6.17;;;;;;;5.39;71.09;97305.13;4921244;28;103664;-85
2021/01/21 00:21:43;;;;;;;7.90;6.30;;;;;;;5.35;71.87;97304.50;4923454;28;102582;-87
2021/01/21 00:24:10;;;;;;;10.00;7.47;;;;;;;5.39;72.22;97289.41;4916258;28;102645;-86
2021/01/21 00:26:37;;;;;;;6.70;5.43;;;;;;;5.33;72.63;97293.31;4922653;28;104097;-86
2021/01/21 00:29:05;;;;;;;7.17;5.37;;;;;;;5.35;72.43;97295.81;4922648;28;103522;-85
2021/01/21 00:31:32;;;;;;;11.03;8.03;;;;;;;5.20;71.84;97288.13;4922626;28;103143;-86
2021/01/21 00:34:00;;;;;;;10.47;7.83;;;;;;;4.99;73.14;97297.53;4905657;28;102982;-84
2021/01/21 00:36:27;;;;;;;7.07;6.37;;;;;;;5.06;73.61;97297.91;4920828;28;104394;-85
2021/01/21 00:38:53;;;;;;;8.60;7.20;;;;;;;5.12;72.94;97287.84;4924016;28;105563;-86
2021/01/21 00:41:20;;;;;;;8.07;6.90;;;;;;;5.00;73.92;97282.66;4924129;28;102981;-84
2021/01/21 00:43:47;;;;;;;10.20;7.37;;;;;;;4.81;74.74;97272.69;4919379;28;103009;-86
2021/01/21 00:46:14;;;;;;;8.67;7.00;;;;;;;4.84;74.40;97280.31;4919720;28;103409;-86
2021/01/21 00:48:42;;;;;;;11.13;8.70;;;;;;;4.84;74.05;97288.16;4924628;28;103704;-84
2021/01/21 00:51:11;;;;;;;10.63;8.67;;;;;;;4.76;74.54;97284.41;4935082;28;104793;-85
2021/01/21 00:53:38;;;;;;;9.43;7.80;;;;;;;4.76;74.58;97285.25;4944025;28;102920;-85
2021/01/21 00:56:08;;;;;;;8.73;7.23;;;;;;;4.68;74.22;97266.66;4926973;28;103249;-86
2021/01/21 00:58:36;;;;;;;11.50;8.23;;;;;;;4.61;74.64;97260.16;4906225;28;104180;-84
2021/01/21 01:01:03;;;;;;;6.57;5.90;;;;;;;4.80;74.58;97262.34;4906229;28;103649;-84
2021/01/21 01:03:30;;;;;;;6.40;5.20;;;;;;;4.95;72.65;97248.97;4923194;28;103041;-83
2021/01/21 01:06:00;;;;;;;6.57;5.63;;;;;;;5.08;73.20;97252.34;4920987;28;103525;-86
2021/01/21 01:08:27;;;;;;;9.97;6.10;;;;;;;5.11;72.92;97239.03;4924063;28;104209;-85
2021/01/21 01:10:54;;;;;;;5.97;5.23;;;;;;;5.14;73.56;97238.81;4922757;28;102988;-86
2021/01/21 01:13:27;;;;;;;7.53;5.17;;;;;;;5.18;72.59;97235.03;4905614;28;103491;-84
2021/01/21 01:15:59;;;;;;;6.10;5.17;;;;;;;5.22;72.43;97230.44;4918483;28;104594;-82
2021/01/21 01:18:34;;;;;;;6.20;5.07;;;;;;;5.19;72.18;97223.59;4900713;28;104866;-85
2021/01/21 01:21:05;;;;;;;7.67;5.90;;;;;;;5.26;70.94;97227.47;4905930;28;103126;-87
2021/01/21 01:23:34;;;;;;;6.83;6.00;;;;;;;5.23;71.06;97230.28;4923907;28;102873;-85
2021/01/21 01:26:01;;;;;;;8.43;6.17;;;;;;;5.27;72.28;97230.91;4910255;28;109818;-86
2021/01/21 01:28:29;;;;;;;9.13;6.83;;;;;;;5.24;72.24;97237.22;4892806;28;105898;-85
2021/01/21 01:30:56;;;;;;;9.13;6.33;;;;;;;5.28;71.85;97239.63;4921059;28;103024;-84
2021/01/21 01:33:23;;;;;;;7.03;6.00;;;;;;;5.28;72.47;97230.78;4922428;28;103051;-84
2021/01/21 01:35:50;;;;;;;6.70;5.67;;;;;;;5.28;72.42;97220.31;4921917;28;104791;-86
2021/01/21 01:38:19;;;;;;;10.30;6.83;;;;;;;5.34;72.35;97212.94;4922767;28;103327;-85
2021/01/21 01:40:46;;;;;;;8.57;6.90;;;;;;;5.23;72.50;97214.59;4922434;28;102556;-86
2021/01/21 01:43:17;;;;;;;6.90;6.20;;;;;;;5.32;71.90;97214.84;4922806;28;102573;-86
2021/01/21 01:45:48;;;;;;;7.77;4.80;;;;;;;5.37;71.06;97207.47;4913474;28;105934;-87
2021/01/21 01:48:17;;;;;;;6.37;5.23;;;;;;;5.52;70.18;97203.72;4923990;28;103826;-83
2021/01/21 01:50:50;;;;;;;6.33;4.33;;;;;;;5.63;68.64;97203.75;4919610;28;102657;-85
2021/01/21 01:53:23;;;;;;;4.47;3.20;;;;;;;5.90;66.13;97212.16;4922528;28;103179;-82
2021/01/21 01:55:54;;;;;;;2.63;2.13;;;;;;;6.03;65.14;97212.06;4921899;28;104456;-84
2021/01/21 01:58:35;;;;;;;2.03;1.50;;;;;;;6.28;62.86;97214.44;4921697;28;103179;-85
2021/01/21 02:01:26;;;;;;;1.70;1.50;;;;;;;6.56;60.81;97200.81;4917566;28;104374;-85
2021/01/21 02:03:56;;;;;;;1.67;1.30;;;;;;;6.67;60.12;97192.06;4912629;28;102647;-83
2021/01/21 02:06:41;;;;;;;2.17;1.20;;;;;;;6.84;59.77;97188.94;4921167;28;104312;-83
2021/01/21 02:09:12;;;;;;;1.93;1.20;;;;;;;6.80;60.28;97192.75;4921281;28;105386;-85
2021/01/21 02:11:47;;;;;;;1.87;1.60;;;;;;;6.89;59.13;97203.34;4910637;28;103385;-84
2021/01/21 02:14:21;;;;;;;2.47;1.50;;;;;;;7.11;57.98;97197.19;4915413;28;103223;-84
2021/01/21 02:16:57;;;;;;;1.90;1.27;;;;;;;7.15;57.67;97206.50;4904103;28;104066;-84
2021/01/21 02:20:11;;;;;;;3.30;1.70;;;;;;;7.15;58.35;97197.78;4912595;28;105523;-82
2021/01/21 02:23:30;;;;;;;4.90;2.70;;;;;;;6.95;60.61;97178.38;4921346;28;103024;-81
2021/01/21 02:26:05;;;;;;;3.93;2.57;;;;;;;6.79;61.79;97160.41;4920024;28;102877;-82
2021/01/21 02:29:09;;;;;;;4.97;2.77;;;;;;;6.84;61.40;97168.78;4920989;28;103778;-83
2021/01/21 02:32:07;;;;;;;4.10;2.37;;;;;;;6.82;62.00;97165.41;4820009;29;103857;-82
2021/01/21 02:35:02;;;;;;;3.10;2.00;;;;;;;6.81;61.44;97169.03;4903287;28;103044;-84
2021/01/21 02:37:30;;;;;;;2.97;1.60;;;;;;;6.82;61.56;97164.59;4905426;28;103005;-82
2021/01/21 02:40:04;;;;;;;2.47;2.00;;;;;;;6.83;61.16;97161.84;4911769;28;103488;-82
2021/01/21 02:42:44;;;;;;;2.67;1.87;;;;;;;6.84;60.95;97162.69;4923517;28;104360;-82
2021/01/21 02:45:15;;;;;;;2.43;2.03;;;;;;;6.87;60.70;97151.94;4921778;28;103441;-82
2021/01/21 02:47:47;;;;;;;3.40;1.87;;;;;;;7.05;59.14;97152.19;4922191;28;103118;-82
2021/01/21 02:50:16;;;;;;;2.40;1.70;;;;;;;7.10;58.99;97137.75;4922840;28;103268;-80
2021/01/21 02:52:53;;;;;;;1.70;1.50;;;;;;;7.18;58.58;97135.31;4921764;28;105112;-81
2021/01/21 02:55:26;;;;;;;3.63;1.67;;;;;;;7.14;59.48;97133.91;4922747;28;102859;-83
2021/01/21 02:58:07;;;;;;;1.30;1.20;;;;;;;7.15;58.94;97135.59;4921493;28;103044;-83
2021/01/21 03:00:38;;;;;;;2.17;1.30;;;;;;;7.22;57.90;97131.47;4907705;28;105690;-82
2021/01/21 03:03:15;;;;;;;2.93;1.37;;;;;;;7.33;57.85;97139.28;4909051;28;104766;-82
2021/01/21 03:05:48;;;;;;;1.60;1.23;;;;;;;7.50;56.75;97140.50;4902635;28;102605;-81
2021/01/21 03:08:16;;;;;;;1.63;1.10;;;;;;;7.56;56.69;97139.97;4902081;28;104513;-79
2021/01/21 03:10:43;;;;;;;1.37;1.10;;;;;;;7.69;56.05;97143.22;4913256;28;103857;-81
2021/01/21 03:13:12;;;;;;;1.83;1.00;;;;;;;7.69;55.61;97139.78;4933867;28;103996;-84
2021/01/21 03:15:47;;;;;;;1.80;1.10;;;;;;;7.74;55.55;97127.09;4920322;28;107953;-82
2021/01/21 03:18:17;;;;;;;0.90;0.80;;;;;;;7.76;55.54;97135.66;4924557;28;102885;-83
2021/01/21 03:20:45;;;;;;;1.00;0.90;;;;;;;7.93;53.78;97121.91;4923779;28;112941;-82
2021/01/21 03:23:21;;;;;;;1.30;1.07;;;;;;;7.90;54.43;97116.91;4907929;28;107741;-81
2021/01/21 03:25:58;;;;;;;1.57;0.80;;;;;;;7.93;54.05;97111.38;4908604;28;102895;-83
2021/01/21 03:28:25;;;;;;;2.13;0.97;;;;;;;8.09;53.14;97112.56;4922649;28;102895;-83
2021/01/21 03:30:52;;;;;;;1.27;0.80;;;;;;;8.10;53.46;97111.59;4905291;28;108279;-82
2021/01/21 03:33:21;;;;;;;1.73;1.00;;;;;;;8.23;52.84;97113.13;4925006;28;103639;-82
2021/01/21 03:35:53;;;;;;;2.17;0.77;;;;;;;8.30;52.49;97099.34;4923354;28;102791;-83
2021/01/21 03:38:21;;;;;;;1.73;1.13;;;;;;;8.40;52.15;97097.56;4924589;28;103224;-83
2021/01/21 03:41:08;;;;;;;1.03;0.80;;;;;;;8.40;51.63;97084.41;4922028;28;105965;-81
2021/01/21 03:43:38;;;;;;;3.80;1.30;;;;;;;8.49;51.38;97090.66;4903835;28;107102;-81
2021/01/21 03:46:18;;;;;;;1.47;1.00;;;;;;;8.59;51.01;97094.13;4916517;28;102665;-81
2021/01/21 03:48:46;;;;;;;1.30;0.90;;;;;;;8.58;51.38;97084.59;4924338;28;102924;-81
2021/01/21 03:51:32;;;;;;;1.27;0.90;;;;;;;8.64;51.01;97100.66;4922914;28;104009;-81
2021/01/21 03:54:17;;;;;;;1.53;0.90;;;;;;;8.70;50.42;97092.19;4924428;28;103612;-81
2021/01/21 03:56:44;;;;;;;1.40;0.90;;;;;;;8.73;50.53;97097.19;4923702;28;103009;-80
2021/01/21 03:59:13;;;;;;;1.33;1.00;;;;;;;8.72;50.52;97090.28;4924122;28;102804;-81
2021/01/21 04:01:48;;;;;;;2.70;1.00;;;;;;;8.78;50.60;97086.25;4923963;28;105253;-83
2021/01/21 04:04:16;;;;;;;1.83;1.13;;;;;;;8.75;50.62;97094.44;4925693;28;103695;-81
2021/01/21 04:06:45;;;;;;;1.80;0.80;;;;;;;8.70;51.28;97097.47;4921654;28;107342;-79
2021/01/21 04:09:16;;;;;;;3.97;1.00;;;;;;;8.70;50.60;97088.75;4923812;28;103338;-80
2021/01/21 04:12:01;;;;;;;1.73;0.80;;;;;;;8.67;51.83;97108.25;4919343;28;103793;-81
2021/01/21 04:14:28;;;;;;;1.40;0.90;;;;;;;8.65;51.90;97106.75;4913032;28;103334;-78
2021/01/21 04:16:56;;;;;;;1.67;0.93;;;;;;;8.60;51.35;97104.53;4923611;28;103165;-75
2021/01/21 04:19:27;;;;;;;1.67;0.97;;;;;;;8.62;50.82;97099.94;4923898;28;103318;-77
2021/01/21 04:21:55;;;;;;;1.40;0.73;;;;;;;8.63;51.14;97101.63;4923084;28;103899;-76
2021/01/21 04:24:25;;;;;;;1.07;0.83;;;;;;;8.62;51.57;97114.91;4923278;28;105678;-78
2021/01/21 04:26:59;;;;;;;2.90;0.97;;;;;;;8.52;51.53;97109.66;4923422;28;102559;-77
2021/01/21 04:29:38;;;;;;;1.73;1.00;;;;;;;8.56;51.53;97105.75;4923350;28;104285;-75
2021/01/21 04:32:06;;;;;;;3.37;0.90;;;;;;;8.70;51.06;97092.19;4920606;28;105428;-75
2021/01/21 04:34:34;;;;;;;2.33;1.20;;;;;;;8.62;51.70;97099.13;4907136;28;107184;-75
2021/01/21 04:37:02;;;;;;;1.57;1.00;;;;;;;8.66;50.68;97106.63;4923948;28;103106;-77
2021/01/21 04:39:55;;;;;;;1.07;0.90;;;;;;;8.70;51.21;97101.91;4920265;28;103076;-76
2021/01/21 04:42:26;;;;;;;1.63;0.93;;;;;;;8.77;50.80;97091.66;4922305;28;105038;-73
2021/01/21 04:45:06;;;;;;;1.27;0.80;;;;;;;8.90;50.50;97092.22;4923025;28;104941;-77
2021/01/21 04:47:39;;;;;;;1.27;0.70;;;;;;;8.83;51.08;97091.09;4906528;28;103019;-77
2021/01/21 04:50:21;;;;;;;2.73;0.73;;;;;;;8.86;50.99;97096.94;4924265;28;102924;-77
2021/01/21 04:53:07;;;;;;;1.50;0.70;;;;;;;8.86;51.23;97104.00;4920417;28;103830;-76
2021/01/21 04:55:49;;;;;;;0.80;0.70;;;;;;;8.85;51.50;97097.88;4921559;28;104068;-81
2021/01/21 04:58:48;;;;;;;2.67;0.80;;;;;;;8.85;50.92;97094.41;4890511;28;103185;-83
2021/01/21 05:01:21;;;;;;;2.90;0.90;;;;;;;8.83;50.90;97091.09;4921210;28;102887;-82
2021/01/21 05:03:51;;;;;;;1.43;0.70;;;;;;;8.87;50.38;97097.78;4922383;28;103520;-82
2021/01/21 05:06:45;;;;;;;3.07;1.20;;;;;;;8.87;50.77;97103.03;4920392;28;106728;-82
2021/01/21 05:09:18;;;;;;;1.60;1.20;;;;;;;8.95;50.91;97103.16;4918957;28;104486;-82
2021/01/21 05:11:46;;;;;;;3.27;0.90;;;;;;;8.91;50.55;97101.78;4917654;28;104109;-82
2021/01/21 05:14:29;;;;;;;1.60;0.97;;;;;;;9.02;50.21;97102.47;4921629;28;104255;-82
2021/01/21 05:17:02;;;;;;;2.43;0.90;;;;;;;9.02;49.81;97096.34;4923058;28;103323;-82
2021/01/21 05:19:51;;;;;;;2.17;0.87;;;;;;;9.06;50.22;97110.94;4922939;28;102603;-82
2021/01/21 05:22:39;;;;;;;2.73;0.73;;;;;;;9.10;50.05;97099.13;4918723;28;103057;-82
2021/01/21 05:25:26;;;;;;;0.80;0.60;;;;;;;9.23;49.09;97103.13;4922093;28;103178;-82
2021/01/21 05:28:13;;;;;;;1.20;1.00;;;;;;;9.30;49.42;97108.69;4922263;28;106894;-82
2021/01/21 05:30:50;;;;;;;0.80;0.70;;;;;;;9.30;49.48;97114.78;4910163;28;103118;-77
2021/01/21 05:33:28;;;;;;;1.20;0.60;;;;;;;9.37;49.03;97112.41;4918254;28;103143;-77
2021/01/21 05:36:11;;;;;;;2.10;0.70;;;;;;;9.38;48.73;97107.97;4919848;28;103796;-78
2021/01/21 05:38:57;;;;;;;0.97;0.70;;;;;;;9.49;48.76;97106.00;4919034;28;105718;-77
2021/01/21 05:41:44;;;;;;;1.00;0.77;;;;;;;9.50;49.07;97110.31;4921829;28;103102;-77
2021/01/21 05:44:31;;;;;;;0.97;0.60;;;;;;;9.60;48.21;97092.66;4911835;28;103221;-77
2021/01/21 05:47:21;;;;;;;1.40;0.87;;;;;;;9.63;49.19;97095.00;4903308;28;105487;-77
2021/01/21 05:49:53;;;;;;;3.47;0.50;;;;;;;9.73;48.01;97087.91;4915172;28;103720;-77
2021/01/21 05:52:25;;;;;;;0.77;0.60;;;;;;;9.96;47.04;97092.81;4904898;28;103064;-77
2021/01/21 05:54:55;;;;;;;0.90;0.60;;;;;;;9.94;47.25;97085.03;4922276;28;103084;-78
2021/01/21 05:57:41;;;;;;;1.30;0.73;;;;;;;9.93;47.00;97085.19;4921896;28;103494;-78
2021/01/21 06:00:09;;;;;;;1.10;0.60;;;;;;;10.05;46.56;97089.31;4918116;28;104088;-78
2021/01/21 06:02:40;;;;;;;2.10;0.77;;;;;;;10.04;46.67;97092.91;4922912;28;103134;-78
2021/01/21 06:05:24;;;;;;;0.83;0.70;;;;;;;10.06;46.66;97093.59;4920854;28;102911;-78
2021/01/21 06:07:52;;;;;;;1.17;0.97;;;;;;;10.05;46.61;97102.50;4921229;28;103966;-79
2021/01/21 06:10:20;;;;;;;0.67;0.60;;;;;;;10.03;46.64;97105.25;4922776;28;104418;-78
2021/01/21 06:12:50;;;;;;;1.10;0.60;;;;;;;10.08;46.72;97100.38;4919041;28;104013;-77
2021/01/21 06:15:18;;;;;;;1.33;0.80;;;;;;;10.08;46.99;97097.75;4914749;28;104024;-78
2021/01/21 06:17:46;;;;;;;0.80;0.60;;;;;;;10.14;46.99;97105.09;4918025;28;104390;-77
2021/01/21 06:20:30;;;;;;;1.63;0.73;;;;;;;10.08;47.04;97107.47;4923122;28;103166;-77
2021/01/21 06:23:11;;;;;;;3.93;0.97;;;;;;;10.15;46.40;97092.75;4920698;28;102914;-84
2021/01/21 06:25:50;;;;;;;1.97;0.70;;;;;;;10.07;46.42;97096.09;4934625;28;103141;-81
2021/01/21 06:28:21;;;;;;;1.43;0.77;;;;;;;10.08;46.67;97102.19;4912473;28;104425;-80
2021/01/21 06:30:53;;;;;;;3.33;1.00;;;;;;;10.04;46.95;97095.56;4895954;28;106972;-75
2021/01/21 06:33:23;;;;;;;2.27;0.70;;;;;;;10.06;47.14;97104.97;4909374;28;102506;-76
2021/01/21 06:35:55;;;;;;;1.00;0.80;;;;;;;9.95;47.37;97097.25;4916872;28;103369;-74
2021/01/21 06:38:25;;;;;;;1.37;0.70;;;;;;;9.98;47.53;97098.78;4917801;28;103670;-73
2021/01/21 06:40:53;;;;;;;2.97;0.63;;;;;;;9.84;47.86;97090.38;4919612;28;105586;-74
2021/01/21 06:43:28;;;;;;;2.90;1.00;;;;;;;9.87;47.40;97108.53;4914025;28;102988;-76
2021/01/21 06:45:58;;;;;;;2.93;0.93;;;;;;;9.83;48.23;97109.78;4925938;28;102840;-77
2021/01/21 06:48:26;;;;;;;2.10;1.10;;;;;;;9.81;48.22;97097.72;4916719;28;104011;-74
2021/01/21 06:50:54;;;;;;;1.17;0.93;;;;;;;9.81;48.30;97095.91;4913959;28;103800;-77
2021/01/21 06:53:22;;;;;;;2.70;0.83;;;;;;;9.88;47.93;97110.19;4925946;28;103190;-74
2021/01/21 06:55:51;;;;;;;1.20;0.93;;;;;;;9.86;48.18;97109.50;4918589;28;103820;-74
2021/01/21 06:58:46;;;;;;;0.90;0.63;;;;;;;9.88;49.00;97112.81;4924314;28;103794;-73
2021/01/21 07:01:46;;;;;;;0.90;0.70;;;;;;;9.84;49.15;97094.81;4924085;28;105139;-76
2021/01/21 07:04:27;;;;;;;3.57;0.80;;;;;;;9.89;49.84;97090.75;4923083;28;103148;-76
2021/01/21 07:07:14;;;;;;;1.73;1.00;;;;;;;9.90;49.94;97095.06;4916285;28;102690;-77
2021/01/21 07:09:42;;;;;;;1.03;0.80;;;;;;;9.95;49.75;97093.78;4916395;28;103254;-74
2021/01/21 07:12:18;;;;;;;1.73;0.80;;;;;;;9.92;50.56;97102.81;4914014;28;105531;-74
2021/01/21 07:14:49;;;;;;;3.40;0.90;;;;;;;9.90;51.33;97099.50;4922869;28;103297;-74
2021/01/21 07:17:15;;;;;;;4.13;1.27;;;;;;;9.93;51.69;97095.75;4925002;28;102857;-74
2021/01/21 07:19:45;;;;;;;1.33;0.73;;;;;;;10.02;51.98;97092.25;4914569;28;104746;-73
2021/01/21 07:22:13;;;;;;;1.40;1.10;;;;;;;9.96;53.41;97092.81;4916035;28;103723;-75
2021/01/21 07:25:01;;;;;;;1.40;1.00;;;;;;;10.01;54.23;97088.75;4922865;28;102642;-75
2021/01/21 07:27:29;;;;;;;2.40;1.00;;;;;;;10.01;54.34;97101.13;4894197;28;103112;-74
2021/01/21 07:30:18;;;;;;;2.83;0.90;;;;;;;9.97;55.79;97090.00;4910905;28;105749;-77
2021/01/21 07:32:45;;;;;;;1.00;0.80;;;;;;;10.00;56.23;97083.63;4914010;28;104845;-74
2021/01/21 07:35:35;;;;;;;1.27;0.70;;;;;;;10.04;57.75;97085.84;4918440;28;102949;-75
2021/01/21 07:38:03;;;;;;;1.10;0.70;;;;;;;10.05;58.24;97066.38;4916098;28;103354;-75
2021/01/21 07:40:54;;;;;;;0.93;0.70;;;;;;;10.07;59.02;97068.88;4916586;28;104126;-74
2021/01/21 07:43:21;;;;;;;2.07;0.70;;;;;;;10.02;59.70;97077.22;4904418;28;103930;-74
2021/01/21 07:46:25;;;;;;;1.93;0.70;;;;;;;10.03;60.28;97073.59;4912436;28;103633;-74
2021/01/21 07:49:23;;;;;;;1.63;0.60;;;;;;;10.09;60.14;97080.94;4913404;28;103162;-74
2021/01/21 07:52:05;;;;;;;3.20;0.80;;;;;;;10.14;60.86;97080.53;4918652;28;105054;-74
2021/01/21 07:54:44;;;;;;;0.70;0.60;;;;;;;10.23;60.72;97082.28;4915555;28;103207;-75
2021/01/21 07:57:12;;;;;;;0.97;0.90;;;;;;;10.40;60.12;97084.13;4916262;28;103269;-74
2021/01/21 07:59:56;;;;;;;1.80;0.70;;;;;;;10.59;60.06;97076.09;4915637;28;103353;-74
2021/01/21 08:02:25;;;;;;;1.40;0.77;;;;;;;10.60;59.75;97072.47;4916834;28;105350;-74
2021/01/21 08:04:59;;;;;;;1.70;0.77;;;;;;;10.58;60.01;97085.00;4916643;28;103280;-74
2021/01/21 08:07:48;;;;;;;0.97;0.70;;;;;;;10.50;60.76;97092.00;4917163;28;103159;-75
2021/01/21 08:10:18;;;;;;;0.83;0.73;;;;;;;10.55;60.06;97087.94;4911010;28;103545;-74
2021/01/21 08:12:50;;;;;;;1.20;0.60;;;;;;;10.63;59.99;97093.31;4919043;28;104680;-74
2021/01/21 08:15:19;;;;;;;0.80;0.60;;;;;;;10.60;59.92;97098.88;4918346;28;104414;-74
2021/01/21 08:17:49;;;;;;;0.83;0.67;;;;;;;11.14;59.25;97092.63;4916664;28;102984;-74
2021/01/21 08:20:18;;;;;;;0.70;0.60;;;;;;;11.27;57.93;97076.34;4918171;28;103448;-74
2021/01/21 08:22:52;;;;;;;2.83;0.77;;;;;;;11.18;58.25;97077.25;4920333;28;105335;-74
2021/01/21 08:25:20;;;;;;;3.07;0.80;;;;;;;11.05;58.76;97091.72;4934122;28;103907;-74
2021/01/21 08:27:48;;;;;;;1.70;0.77;;;;;;;10.96;58.54;97084.69;4916707;28;103085;-74
2021/01/21 08:30:19;;;;;;;1.63;0.70;;;;;;;10.97;59.22;97085.53;4916145;28;103135;-74
2021/01/21 08:32:51;;;;;;;1.13;0.60;;;;;;;11.46;57.71;97097.31;4914020;28;103915;-75
2021/01/21 08:35:22;;;;;;;1.20;0.70;;;;;;;11.51;58.09;97085.28;4916111;28;104077;-74
2021/01/21 08:37:51;;;;;;;1.83;0.70;;;;;;;12.04;56.54;97081.66;4913342;28;103296;-75
2021/01/21 08:40:20;;;;;;;0.87;0.70;;;;;;;11.47;57.37;97093.69;4920394;28;103199;-74
2021/01/21 08:42:49;;;;;;;2.10;0.63;;;;;;;11.46;57.99;97092.84;4911608;28;104954;-74
2021/01/21 08:45:17;;;;;;;1.33;0.70;;;;;;;11.99;56.79;97105.94;4920921;28;103914;-74
2021/01/21 08:47:46;;;;;;;0.90;0.60;;;;;;;12.10;56.48;97108.31;4921375;28;103172;-75
2021/01/21 08:50:16;;;;;;;1.17;0.77;;;;;;;11.56;57.69;97108.63;4921875;28;103071;-74
2021/01/21 08:52:57;;;;;;;0.80;0.70;;;;;;;12.07;57.52;97124.50;4922289;28;103892;-74
2021/01/21 08:55:39;;;;;;;0.93;0.53;;;;;;;12.53;56.37;97123.22;4919124;28;105302;-74
2021/01/21 08:58:08;;;;;;;2.63;0.70;;;;;;;12.64;55.77;97130.03;4921570;28;103780;-74
2021/01/21 09:00:36;;;;;;;2.30;0.80;;;;;;;12.82;55.31;97114.84;4920625;28;108682;-74
2021/01/21 09:03:04;;;;;;;1.10;0.77;;;;;;;12.63;55.85;97110.66;4917998;28;103884;-74
2021/01/21 09:05:33;;;;;;;1.00;0.77;;;;;;;12.62;55.60;97113.47;4920912;28;103689;-74
2021/01/21 09:08:06;;;;;;;0.70;0.70;;;;;;;12.89;55.54;97102.59;4917950;28;102851;-74
2021/01/21 09:10:43;;;;;;;0.80;0.53;;;;;;;13.08;55.32;97104.16;4916486;28;103100;-74
2021/01/21 09:13:11;;;;;;;1.13;0.60;;;;;;;12.92;54.91;97114.69;4916567;28;104842;-74
2021/01/21 09:15:55;;;;;;;0.60;0.57;;;;;;;12.90;54.87;97112.22;4916731;28;104192;-74
2021/01/21 09:18:24;;;;;;;1.20;0.77;;;;;;;13.12;54.39;97113.41;4908932;28;103543;-73
2021/01/21 09:21:11;;;;;;;1.33;0.80;;;;;;;13.06;54.39;97114.88;4909051;28;108509;-73
2021/01/21 09:23:38;;;;;;;0.80;0.80;;;;;;;13.26;54.28;97118.06;4912114;28;103941;-74
2021/01/21 09:26:14;;;;;;;1.03;0.90;;;;;;;13.61;54.10;97112.44;4905947;28;103828;-73
2021/01/21 09:28:55;;;;;;;1.87;0.60;;;;;;;13.33;54.28;97130.50;4919726;28;103850;-74
2021/01/21 09:31:23;;;;;;;1.30;0.80;;;;;;;13.19;54.34;97119.75;4917376;28;103125;-74
2021/01/21 09:33:51;;;;;;;1.73;1.00;;;;;;;12.63;55.89;97115.16;4913915;28;105181;-74
2021/01/21 09:36:21;;;;;;;0.73;0.60;;;;;;;12.35;56.86;97100.47;4913090;28;105363;-74
2021/01/21 09:38:51;;;;;;;1.97;0.73;;;;;;;12.50;56.35;97115.59;4899054;28;103408;-74
2021/01/21 09:41:23;;;;;;;0.73;0.60;;;;;;;12.84;55.91;97107.56;4911072;28;104476;-74
2021/01/21 09:43:51;;;;;;;1.63;0.70;;;;;;;13.08;55.22;97120.06;4918506;28;104145;-74
2021/01/21 09:46:23;;;;;;;0.90;0.70;;;;;;;12.87;55.55;97127.59;4917004;28;110443;-74
2021/01/21 09:48:53;;;;;;;1.93;0.63;;;;;;;12.77;55.96;97111.88;4920945;28;104085;-74
2021/01/21 09:51:29;;;;;;;1.80;0.70;;;;;;;13.20;55.35;97118.72;4920842;28;104975;-74
2021/01/21 09:53:58;;;;;;;3.03;0.70;;;;;;;13.10;55.62;97112.78;4913956;28;104546;-74
2021/01/21 09:56:27;;;;;;;0.53;0.53;;;;;;;13.17;55.56;97119.88;4910267;28;104242;-74
2021/01/21 09:58:55;;;;;;;0.70;0.70;;;;;;;13.16;55.56;97112.94;4915276;28;103282;-74
2021/01/21 10:01:23;;;;;;;1.73;0.57;;;;;;;13.05;55.52;97126.47;4910893;28;104028;-74
2021/01/21 10:03:51;;;;;;;0.93;0.63;;;;;;;13.21;56.07;97125.69;4913488;28;107369;-73
2021/01/21 10:06:18;;;;;;;0.83;0.60;;;;;;;13.20;55.52;97118.72;4917578;28;104243;-73
2021/01/21 10:08:47;;;;;;;1.00;0.70;;;;;;;13.20;55.87;97122.22;4914601;28;104552;-74
2021/01/21 10:11:14;;;;;;;1.17;0.90;;;;;;;13.27;55.37;97120.56;4918026;28;103523;-74
2021/01/21 10:13:41;;;;;;;0.73;0.60;;;;;;;13.19;55.99;97115.25;4910864;28;103791;-74
2021/01/21 10:16:09;;;;;;;1.67;0.67;;;;;;;13.26;55.98;97112.78;4918825;28;103457;-74
2021/01/21 10:18:37;;;;;;;1.40;0.73;;;;;;;13.52;55.73;97112.59;4921409;28;103113;-74
2021/01/21 10:21:05;;;;;;;3.00;0.93;;;;;;;13.51;55.54;97124.19;4923468;28;103088;-74
2021/01/21 10:23:32;;;;;;;1.03;0.60;;;;;;;13.46;55.33;97129.19;4916585;28;104067;-74
2021/01/21 10:26:01;;;;;;;0.73;0.70;;;;;;;13.67;55.20;97118.91;4899566;28;107433;-74
2021/01/21 10:28:28;;;;;;;4.30;0.80;;;;;;;13.94;54.41;97123.81;4924170;28;102996;-74
2021/01/21 10:30:56;;;;;;;2.77;0.70;;;;;;;13.90;54.71;97111.88;4918056;28;102565;-74
2021/01/21 10:33:23;;;;;;;0.90;0.70;;;;;;;13.73;55.77;97112.91;4922914;28;104935;-74
2021/01/21 10:35:51;;;;;;;0.50;0.50;;;;;;;13.58;55.33;97125.19;4920328;28;103295;-74
2021/01/21 10:38:18;;;;;;;1.40;0.50;;;;;;;13.91;54.82;97126.81;4920408;28;103262;-74
2021/01/21 10:40:46;;;;;;;1.87;0.80;;;;;;;13.67;55.80;97129.50;4923153;28;103286;-74
2021/01/21 10:43:16;;;;;;;0.97;0.60;;;;;;;13.59;55.42;97130.34;4923839;28;103824;-74
2021/01/21 10:45:44;;;;;;;1.10;0.70;;;;;;;13.78;55.75;97139.78;4923170;28;104607;-74
2021/01/21 10:48:11;;;;;;;0.77;0.60;;;;;;;14.05;55.27;97143.88;4922616;28;103480;-74
2021/01/21 10:50:39;;;;;;;1.03;0.80;;;;;;;14.54;53.65;97141.94;4924184;28;102961;-74
2021/01/21 10:53:06;;;;;;;0.83;0.70;;;;;;;14.62;54.22;97134.75;4924957;28;103168;-74
2021/01/21 10:55:33;;;;;;;1.70;0.70;;;;;;;14.13;54.95;97134.06;4921869;28;103249;-72
2021/01/21 10:58:00;;;;;;;0.93;0.60;;;;;;;14.20;55.32;97136.88;4917102;28;104224;-73
2021/01/21 11:00:40;;;;;;;1.20;0.60;;;;;;;14.31;54.78;97137.34;4922252;28;103024;-74
2021/01/21 11:03:08;;;;;;;0.70;0.67;;;;;;;14.23;55.42;97134.69;4916999;28;105781;-74
2021/01/21 11:05:35;;;;;;;0.80;0.70;;;;;;;14.41;54.95;97119.38;4914618;28;103886;-78
2021/01/21 11:08:02;;;;;;;3.20;0.80;;;;;;;14.77;54.33;97127.69;4920762;28;104272;-76
2021/01/21 11:10:29;;;;;;;1.07;0.67;;;;;;;14.95;54.40;97135.38;4919161;28;102761;-79
2021/01/21 11:12:57;;;;;;;1.03;0.80;;;;;;;14.32;55.28;97116.91;4920410;28;104211;-77
2021/01/21 11:15:24;;;;;;;1.13;0.70;;;;;;;14.19;56.03;97130.72;4913944;28;104675;-77
2021/01/21 11:17:52;;;;;;;2.00;0.70;;;;;;;14.15;55.94;97132.06;4925625;28;107901;-77
2021/01/21 11:20:23;;;;;;;1.40;0.87;;;;;;;14.36;55.97;97124.38;4907227;28;103305;-77
2021/01/21 11:22:50;;;;;;;1.03;0.77;;;;;;;14.68;55.92;97122.59;4921305;28;105345;-79
2021/01/21 11:25:17;;;;;;;2.67;0.77;;;;;;;15.17;54.73;97123.09;4925356;28;103524;-75
2021/01/21 11:28:03;;;;;;;0.60;0.50;;;;;;;15.17;54.38;97123.09;4911146;28;105449;-84
2021/01/21 11:30:31;;;;;;;2.37;0.70;;;;;;;15.41;54.24;97123.75;4924034;28;102989;-81
2021/01/21 11:32:59;;;;;;;0.90;0.40;;;;;;;14.48;55.42;97124.84;4921960;28;106698;-81
2021/01/21 11:35:27;;;;;;;1.23;0.50;;;;;;;14.50;56.57;97128.97;4924021;28;104690;-82
2021/01/21 11:37:55;;;;;;;1.40;0.80;;;;;;;14.61;57.16;97121.63;4919765;28;103070;-81
2021/01/21 11:40:22;;;;;;;1.67;0.67;;;;;;;14.78;57.67;97120.53;4924852;28;103242;-84
2021/01/21 11:42:49;;;;;;;1.03;0.50;;;;;;;15.05;56.85;97109.38;4924657;28;103817;-81
2021/01/21 11:45:17;;;;;;;2.70;0.80;;;;;;;14.84;57.19;97114.53;4909480;28;108313;-78
2021/01/21 11:47:44;;;;;;;1.07;0.60;;;;;;;14.45;57.44;97111.91;4925106;28;103147;-79
2021/01/21 11:50:16;;;;;;;1.30;0.60;;;;;;;14.50;57.40;97115.69;4926017;28;102778;-74
2021/01/21 11:52:44;;;;;;;2.03;0.63;;;;;;;14.26;57.95;97114.94;4925792;28;103963;-76
2021/01/21 11:55:13;;;;;;;0.97;0.60;;;;;;;14.58;57.14;97100.69;4924350;28;108398;-75
2021/01/21 11:57:42;;;;;;;2.13;0.70;;;;;;;14.12;57.23;97111.16;4924486;28;102830;-75